TimeEDT,TemperatureF,Dew PointF,Humidity,Sea Level PressureIn,VisibilityMPH,Wind Direction,Wind SpeedMPH,Gust SpeedMPH,PrecipitationIn,Events,Conditions,WindDirDegrees,DateUTC
12:33 AM,69.8,69.8,100,29.97,10.0,Variable,4.6,-,N/A,,Overcast,0,2013-10-16 04:33:00
12:58 AM,70.7,70.3,99,29.98,10.0,NE,4.6,-,N/A,,Overcast,40,2013-10-16 04:58:00
1:53 AM,69.8,69.8,100,29.96,10.0,NE,3.5,-,N/A,,Scattered Clouds,50,2013-10-16 05:53:00
1:58 AM,69.6,69.4,99,29.97,10.0,NE,3.5,-,N/A,,Mostly Cloudy,50,2013-10-16 05:58:00
2:58 AM,70.2,69.8,99,29.96,10.0,ENE,3.5,-,N/A,,Overcast,60,2013-10-16 06:58:00
3:28 AM,69.8,69.8,100,29.95,10.0,ENE,3.5,-,N/A,,Scattered Clouds,60,2013-10-16 07:28:00
3:43 AM,69.8,69.8,100,29.95,10.0,NE,2.3,-,N/A,,Mostly Cloudy,40,2013-10-16 07:43:00
3:58 AM,69.8,69.6,99,29.96,10.0,NNE,2.3,-,N/A,,Mostly Cloudy,20,2013-10-16 07:58:00
4:18 AM,69.8,69.8,100,29.95,10.0,Calm,Calm,-,N/A,,Overcast,0,2013-10-16 08:18:00
4:23 AM,69.8,69.8,100,29.95,10.0,NNE,1.2,-,N/A,,Overcast,20,2013-10-16 08:23:00
4:43 AM,69.8,69.8,100,29.95,10.0,North,3.5,-,N/A,,Scattered Clouds,10,2013-10-16 08:43:00
4:58 AM,69.6,69.3,99,29.96,10.0,NNE,3.5,-,N/A,,Clear,20,2013-10-16 08:58:00
5:58 AM,68.2,67.8,99,29.97,10.0,NE,3.5,-,N/A,,Clear,40,2013-10-16 09:58:00
6:58 AM,67.3,66.9,99,29.98,8.0,NE,2.3,-,N/A,,Clear,50,2013-10-16 10:58:00
7:13 AM,66.2,66.2,100,29.97,2.5,NE,2.3,-,N/A,,Clear,50,2013-10-16 11:13:00
7:23 AM,66.2,66.2,100,29.97,6.0,NNE,2.3,-,N/A,,Clear,30,2013-10-16 11:23:00
7:58 AM,66.0,65.8,99,29.99,9.0,NNE,4.6,-,N/A,,Clear,30,2013-10-16 11:58:00
8:58 AM,71.2,71.2,100,29.99,10.0,NNE,3.5,-,N/A,,Scattered Clouds,30,2013-10-16 12:58:00
9:10 AM,73.4,73.4,100,29.98,10.0,NNE,4.6,-,N/A,,Partly Cloudy,30,2013-10-16 13:10:00
9:58 AM,75.4,75.4,100,29.99,10.0,ENE,5.8,-,N/A,,Scattered Clouds,70,2013-10-16 13:58:00
10:13 AM,77.0,77.0,100,29.99,10.0,East,6.9,-,N/A,,Mostly Cloudy,90,2013-10-16 14:13:00
10:18 AM,77.0,75.2,94,29.99,10.0,East,5.8,-,N/A,,Scattered Clouds,80,2013-10-16 14:18:00
10:48 AM,78.8,73.4,83,29.99,10.0,Variable,3.5,-,N/A,,Mostly Cloudy,0,2013-10-16 14:48:00
10:58 AM,79.2,73.6,83,30.00,10.0,Variable,4.6,-,N/A,,Mostly Cloudy,0,2013-10-16 14:58:00
11:56 AM,82.4,73.4,74,29.99,10.0,WNW,6.9,-,N/A,,Mostly Cloudy,300,2013-10-16 15:56:00
11:59 AM,84.2,73.4,70,29.99,10.0,West,5.8,-,N/A,,Scattered Clouds,280,2013-10-16 15:59:00
12:58 PM,84.2,73.6,70,29.99,10.0,West,5.8,-,N/A,,Clear,280,2013-10-16 16:58:00
1:58 PM,86.7,71.8,61,29.97,10.0,Variable,3.5,-,N/A,,Clear,0,2013-10-16 17:58:00
2:58 PM,87.6,71.4,58,29.95,10.0,SW,4.6,-,N/A,,Clear,220,2013-10-16 18:58:00
3:58 PM,86.5,71.1,60,29.94,10.0,WNW,4.6,-,N/A,,Clear,300,2013-10-16 19:58:00
4:58 PM,84.0,70.7,64,29.93,10.0,NW,6.9,-,N/A,,Clear,320,2013-10-16 20:58:00
5:58 PM,82.4,70.0,66,29.93,10.0,NW,5.8,-,N/A,,Clear,310,2013-10-16 21:58:00
6:58 PM,77.9,70.0,76,29.94,10.0,WNW,8.1,-,N/A,,Clear,300,2013-10-16 22:58:00
7:58 PM,75.0,69.6,83,29.95,10.0,NW,5.8,-,N/A,,Clear,310,2013-10-16 23:58:00
8:58 PM,73.8,69.4,86,29.97,10.0,NNW,4.6,-,N/A,,Clear,340,2013-10-17 00:58:00
9:58 PM,73.2,70.2,90,29.98,10.0,NNW,4.6,-,N/A,,Clear,340,2013-10-17 01:58:00
10:58 PM,71.6,69.1,92,29.99,10.0,NNE,2.3,-,N/A,,Clear,20,2013-10-17 02:58:00
11:58 PM,69.4,67.6,94,29.98,10.0,NNE,4.6,-,N/A,,Clear,20,2013-10-17 03:58:00